| time (UTC) | temp F | wind direction | speed MPH | gust MPH | rain 1hr in | rain 24hr in | rain mn in | humidity % | barometer mb |
| 20260510104538 | 53 | 360 | 0.0 | 0.0 | 0.00 | 0.01 | 0.01 | 97 | 1018.7 |
| 20260510103056 | 53 | 360 | 0.0 | 1.0 | 0.00 | 0.01 | 0.01 | 97 | 1018.6 |
| 20260510101520 | 53 | 360 | 0.0 | 1.0 | 0.01 | 0.01 | 0.01 | 97 | 1018.7 |
| 20260510100029 | 53 | 360 | 0.0 | 0.0 | 0.01 | 0.01 | 0.01 | 97 | 1018.5 |
| 20260510094558 | 53 | 360 | 0.0 | 0.0 | 0.01 | 0.01 | 0.01 | 97 | 1018.4 |
| 20260510093020 | 53 | 360 | 0.0 | 0.0 | 0.01 | 0.01 | 0.01 | 97 | 1018.5 |
| 20260510091555 | 53 | 360 | 0.0 | 0.0 | 0.00 | 0.00 | 0.00 | 97 | 1018.5 |
| 20260510090013 | 53 | 360 | 0.0 | 0.0 | 0.00 | 0.00 | 0.00 | 96 | 1018.5 |
| 20260510084547 | 53 | 360 | 0.0 | 1.0 | 0.00 | 0.00 | 0.00 | 96 | 1018.4 |
| 20260510083115 | 53 | 360 | 0.0 | 2.0 | 0.00 | 0.00 | 0.00 | 96 | 1018.3 |
| 20260510081536 | 53 | 360 | 6.0 | 11.0 | 0.00 | 0.00 | 0.00 | 96 | 1018.3 |
| 20260510080040 | 53 | 360 | 4.0 | 9.0 | 0.00 | 0.00 | 0.00 | 96 | 1018.1 |
| 20260510074602 | 54 | 360 | 0.0 | 0.0 | 0.00 | 0.00 | 0.00 | 96 | 1018.2 |
| 20260510073034 | 54 | 17 | 0.0 | 0.0 | 0.00 | 0.00 | 0.00 | 96 | 1018.3 |
| 20260510071539 | 54 | 360 | 0.0 | 0.0 | 0.00 | 0.00 | 0.00 | 96 | 1018.2 |
| 20260510070107 | 54 | 360 | 0.0 | 0.0 | 0.00 | 0.00 | 0.00 | 95 | 1018.3 |
| 20260510064545 | 54 | 360 | 0.0 | 0.0 | 0.00 | 0.00 | 0.00 | 95 | 1018.6 |
| 20260510063051 | 54 | 360 | 4.0 | 8.0 | 0.00 | 0.00 | 0.00 | 95 | 1018.4 |
| 20260510061519 | 54 | 360 | 4.0 | 8.0 | 0.00 | 0.00 | 0.00 | 95 | 1018.6 |
| 20260510060040 | 54 | 360 | 0.0 | 8.0 | 0.00 | 0.00 | 0.00 | 94 | 1018.6 |
| 20260510054604 | 54 | 360 | 0.0 | 9.0 | 0.00 | 0.00 | 0.00 | 94 | 1018.7 |
| 20260510053028 | 54 | 360 | 1.0 | 11.0 | 0.00 | 0.00 | 0.00 | 94 | 1018.7 |
| 20260510051606 | 55 | 360 | 2.0 | 9.0 | 0.00 | 0.00 | 0.00 | 93 | 1018.6 |
| 20260510050020 | 55 | 360 | 1.0 | 9.0 | 0.00 | 0.00 | 0.00 | 93 | 1018.2 |
| 20260510044554 | 55 | 360 | 7.0 | 11.0 | 0.00 | 0.00 | 0.00 | 93 | 1018.0 |
| 20260510043101 | 55 | 360 | 4.0 | 12.0 | 0.00 | 0.00 | 0.00 | 93 | 1018.0 |
| 20260510041507 | 55 | 360 | 5.0 | 11.0 | 0.00 | 0.00 | 0.00 | 93 | 1017.8 |
| 20260510040037 | 55 | 360 | 3.0 | 10.0 | 0.00 | 0.00 | 0.00 | 92 | 1017.7 |
| 20260510034606 | 55 | 360 | 0.0 | 9.0 | 0.00 | 0.00 | 0.00 | 92 | 1017.6 |
| 20260510033029 | 55 | 360 | 6.0 | 11.0 | 0.00 | 0.00 | 0.00 | 92 | 1017.3 |
| 20260510031608 | 55 | 360 | 5.0 | 11.0 | 0.00 | 0.00 | 0.00 | 92 | 1017.2 |
| 20260510030021 | 55 | 360 | 4.0 | 11.0 | 0.00 | 0.00 | 0.00 | 92 | 1017.1 |
| 20260510024538 | 55 | 360 | 6.0 | 12.0 | 0.00 | 0.00 | 0.00 | 91 | 1016.8 |
| 20260510023101 | 56 | 360 | 6.0 | 13.0 | 0.00 | 0.00 | 0.00 | 91 | 1016.9 |
| 20260510021523 | 56 | 15 | 5.0 | 11.0 | 0.00 | 0.00 | 0.00 | 91 | 1016.8 |
| 20260510020050 | 56 | 360 | 6.0 | 12.0 | 0.00 | 0.00 | 0.00 | 90 | 1016.8 |
| 20260510014517 | 57 | 360 | 6.0 | 12.0 | 0.00 | 0.00 | 0.00 | 90 | 1017.0 |
| 20260510013050 | 58 | 360 | 6.0 | 10.0 | 0.00 | 0.00 | 0.00 | 89 | 1017.2 |
| 20260510011504 | 59 | 360 | 9.0 | 16.0 | 0.00 | 0.00 | 0.00 | 87 | 1017.0 |
| 20260510010030 | 60 | 360 | 2.0 | 9.0 | 0.00 | 0.00 | 0.00 | 86 | 1017.3 |
| 20260510004557 | 61 | 360 | 4.0 | 12.0 | 0.00 | 0.00 | 0.00 | 86 | 1017.3 |
| 20260510003021 | 60 | 310 | 5.0 | 12.0 | 0.00 | 0.00 | 0.00 | 86 | 1017.2 |
| 20260510001551 | 60 | 360 | 7.0 | 13.0 | 0.00 | 0.00 | 0.00 | 85 | 1017.0 |
| 20260510000013 | 60 | 360 | 5.0 | 16.0 | 0.00 | 0.00 | 0.00 | 86 | 1017.0 |
| 20260509234558 | 60 | 360 | 11.0 | 15.0 | 0.00 | 0.00 | 0.00 | 85 | 1016.9 |
| 20260509233014 | 61 | 360 | 7.0 | 15.0 | 0.00 | 0.00 | 0.00 | 85 | 1016.8 |
| 20260509231542 | 60 | 360 | 10.0 | 16.0 | 0.00 | 0.00 | 0.00 | 85 | 1016.9 |
| 20260509230108 | 60 | 360 | 10.0 | 22.0 | 0.00 | 0.00 | 0.00 | 85 | 1017.0 |
| 20260509224525 | 61 | 360 | 10.0 | 18.0 | 0.00 | 0.00 | 0.00 | 84 | 1016.9 |
| 20260509223052 | 61 | 360 | 11.0 | 19.0 | 0.00 | 0.00 | 0.00 | 84 | 1016.9 |
| 20260509221516 | 61 | 360 | 11.0 | 22.0 | 0.00 | 0.00 | 0.00 | 83 | 1016.8 |
| 20260509220043 | 61 | 360 | 9.0 | 17.0 | 0.00 | 0.00 | 0.00 | 84 | 1016.9 |
| 20260509214508 | 62 | 360 | 10.0 | 18.0 | 0.00 | 0.00 | 0.00 | 84 | 1017.0 |
| 20260509213035 | 61 | 360 | 11.0 | 21.0 | 0.00 | 0.00 | 0.00 | 84 | 1016.8 |
| 20260509211551 | 61 | 360 | 14.0 | 23.0 | 0.00 | 0.00 | 0.00 | 83 | 1016.7 |
| 20260509210108 | 61 | 360 | 14.0 | 21.0 | 0.00 | 0.00 | 0.00 | 83 | 1016.8 |
| 20260509204520 | 61 | 360 | 11.0 | 21.0 | 0.00 | 0.00 | 0.00 | 84 | 1017.0 |
| 20260509203039 | 61 | 360 | 11.0 | 19.0 | 0.00 | 0.00 | 0.00 | 84 | 1017.1 |
| 20260509201603 | 61 | 360 | 10.0 | 22.0 | 0.00 | 0.00 | 0.00 | 84 | 1017.1 |
| 20260509200023 | 61 | 360 | 14.0 | 20.0 | 0.00 | 0.00 | 0.00 | 83 | 1017.1 |
| 20260509194547 | 61 | 360 | 11.0 | 17.0 | 0.00 | 0.00 | 0.00 | 82 | 1017.1 |
| 20260509193011 | 61 | 360 | 12.0 | 18.0 | 0.00 | 0.00 | 0.00 | 83 | 1017.2 |
| 20260509191544 | 61 | 360 | 11.0 | 19.0 | 0.00 | 0.00 | 0.00 | 82 | 1017.2 |
| 20260509190111 | 61 | 360 | 12.0 | 19.0 | 0.00 | 0.00 | 0.00 | 81 | 1017.2 |
| 20260509184540 | 62 | 360 | 7.0 | 16.0 | 0.00 | 0.00 | 0.00 | 82 | 1017.2 |
| 20260509183056 | 62 | 360 | 8.0 | 13.0 | 0.00 | 0.00 | 0.00 | 81 | 1017.4 |
| 20260509181520 | 61 | 360 | 8.0 | 16.0 | 0.00 | 0.00 | 0.00 | 83 | 1017.3 |
| 20260509180059 | 61 | 360 | 9.0 | 16.0 | 0.00 | 0.00 | 0.00 | 83 | 1017.5 |
| 20260509174517 | 60 | 313 | 9.0 | 16.0 | 0.00 | 0.00 | 0.00 | 84 | 1017.4 |
| 20260509173044 | 60 | 360 | 8.0 | 14.0 | 0.00 | 0.00 | 0.00 | 83 | 1017.3 |
| 20260509171505 | 61 | 360 | 4.0 | 11.0 | 0.00 | 0.00 | 0.00 | 83 | 1017.2 |
| 20260509170032 | 60 | 360 | 6.0 | 11.0 | 0.00 | 0.00 | 0.00 | 83 | 1017.3 |
| 20260509164601 | 61 | 360 | 4.0 | 9.0 | 0.00 | 0.00 | 0.00 | 85 | 1017.4 |
| 20260509163046 | 60 | 360 | 4.0 | 9.0 | 0.00 | 0.00 | 0.00 | 88 | 1017.4 |
| 20260509161555 | 57 | 360 | 5.0 | 11.0 | 0.00 | 0.00 | 0.00 | 90 | 1017.5 |
| 20260509160013 | 56 | 360 | 5.0 | 9.0 | 0.00 | 0.00 | 0.00 | 93 | 1017.5 |
| 20260509154540 | 54 | 360 | 5.0 | 9.0 | 0.00 | 0.00 | 0.00 | 94 | 1017.6 |
| 20260509153010 | 53 | 360 | 4.0 | 9.0 | 0.00 | 0.00 | 0.00 | 95 | 1017.8 |
| 20260509151515 | 52 | 360 | 3.0 | 8.0 | 0.00 | 0.00 | 0.00 | 96 | 1018.0 |
| 20260509150054 | 50 | 360 | 0.0 | 1.0 | 0.00 | 0.00 | 0.00 | 96 | 1017.9 |
| 20260509144602 | 50 | 360 | 0.0 | 1.0 | 0.00 | 0.00 | 0.00 | 96 | 1017.9 |
| 20260509143032 | 49 | 360 | 0.0 | 0.0 | 0.00 | 0.00 | 0.00 | 97 | 1018.0 |
| 20260509141535 | 48 | 360 | 0.0 | 1.0 | 0.00 | 0.00 | 0.00 | 96 | 1017.9 |
| 20260509140107 | 47 | 360 | 0.0 | 0.0 | 0.00 | 0.00 | 0.00 | 96 | 1018.1 |
| 20260509134526 | 47 | 360 | 0.0 | 0.0 | 0.00 | 0.00 | 0.00 | 96 | 1018.1 |
| 20260509133101 | 47 | 360 | 0.0 | 0.0 | 0.00 | 0.00 | 0.00 | 96 | 1018.0 |
| 20260509131503 | 47 | 360 | 0.0 | 0.0 | 0.00 | 0.00 | 0.00 | 96 | 1018.2 |
| 20260509130030 | 47 | 360 | 0.0 | 0.0 | 0.00 | 0.00 | 0.00 | 96 | 1018.1 |
| 20260509124600 | 47 | 16 | 0.0 | 0.0 | 0.00 | 0.00 | 0.00 | 96 | 1018.0 |
| 20260509123019 | 47 | 360 | 0.0 | 0.0 | 0.00 | 0.00 | 0.00 | 96 | 1018.4 |
| 20260509121549 | 47 | 360 | 0.0 | 0.0 | 0.00 | 0.00 | 0.00 | 96 | 1018.5 |
| 20260509120107 | 46 | 360 | 0.0 | 0.0 | 0.00 | 0.00 | 0.00 | 96 | 1018.5 |
| 20260509114542 | 47 | 360 | 0.0 | 0.0 | 0.00 | 0.00 | 0.00 | 96 | 1018.7 |
| 20260509113050 | 47 | 360 | 0.0 | 0.0 | 0.00 | 0.00 | 0.00 | 95 | 1018.8 |
| 20260509111601 | 47 | 360 | 0.0 | 0.0 | 0.00 | 0.00 | 0.00 | 95 | 1018.6 |